Terminal Aerodrome Forecast
Issued by NWS

Home | Current Version | Previous Version | Text Only | Print | Product List | Glossary On
Versions: 1 2 3 4 5 6 7 8 9 10 11 12 13 14 15 16 17 18 19 20
000
FTUS43 KAPX 281721
TAFAPN
TAF
KAPN 281721Z 2818/2918 11008KT P6SM SCT050
     FM290000 11006KT P6SM BKN150
     FM290600 16003KT P6SM SKC WS020/18028KT
     FM291300 17007KT P6SM SCT250
     FM291500 17011G19KT P6SM SCT150 BKN250=

USA.gov is the U.S. government's official web portal to all federal, state and local government web resources and services.